createdAt,value
2022-10-29T08:21:50.946Z,-23488.72
2022-10-29T08:24:17.506Z,-23484.38
2022-10-29T08:26:44.181Z,-23497.47
2022-10-29T08:29:10.683Z,-23510.06
2022-10-29T08:31:37.181Z,-23521.22
2022-10-29T08:34:08.460Z,-23542.53
2022-10-29T08:36:37.413Z,-23560.00
2022-10-29T08:39:03.944Z,-23563.41
2022-10-29T08:41:33.088Z,-23558.56
2022-10-29T08:44:10.382Z,-23569.72
2022-10-29T08:47:03.830Z,-23571.16
2022-10-29T08:50:17.722Z,-23586.44
2022-10-29T08:52:53.331Z,-23587.91
2022-10-29T08:55:37.205Z,-23582.31
2022-10-29T08:58:16.547Z,-23587.66
2022-10-29T09:00:43.506Z,-23593.47
2022-10-29T09:03:12.424Z,-23591.53
2022-10-29T09:06:11.407Z,-23596.63
2022-10-29T09:09:06.898Z,-23597.34
2022-10-29T09:11:59.570Z,-23594.94
2022-10-29T09:14:59.863Z,-23595.41
2022-10-29T09:17:35.647Z,-23595.16
2022-10-29T09:20:20.329Z,-23607.06
2022-10-29T09:23:28.386Z,-23602.22
2022-10-29T09:26:05.370Z,-23600.25
2022-10-29T09:28:55.138Z,-23607.53
2022-10-29T09:31:40.021Z,-23611.66
2022-10-29T09:34:17.973Z,-23628.41
2022-10-29T09:36:46.811Z,-23623.56
2022-10-29T09:39:24.668Z,-23629.38
2022-10-29T09:41:53.908Z,-23631.31
2022-10-29T09:44:23.706Z,-23631.56
2022-10-29T09:47:09.405Z,-23629.38
2022-10-29T09:49:42.136Z,-23640.53
2022-10-29T09:52:16.838Z,-23640.03
2022-10-29T09:54:43.512Z,-23643.44
2022-10-29T09:57:25.473Z,-23650.22
2022-10-29T09:59:59.179Z,-23650.72
2022-10-29T10:02:39.177Z,-23648.78
2022-10-29T10:05:18.432Z,-23655.09
2022-10-29T10:08:06.457Z,-23660.91
2022-10-29T10:10:34.987Z,-23664.56
2022-10-29T10:13:03.793Z,-23665.53
2022-10-29T10:15:36.412Z,-23682.75
2022-10-29T10:18:16.219Z,-23684.69
2022-10-29T10:20:45.712Z,-23682.75
2022-10-29T10:23:21.645Z,-23677.66
2022-10-29T10:25:49.351Z,-23680.56
2022-10-29T10:28:23.666Z,-23698.03
2022-10-29T10:31:15.152Z,-23697.78
2022-10-29T10:34:07.510Z,-23704.81
2022-10-29T10:36:40.393Z,-23701.91
2022-10-29T10:39:21.072Z,-23707.00
2022-10-29T10:41:49.946Z,-23707.75
2022-10-29T10:44:16.977Z,-23717.44
2022-10-29T10:46:44.804Z,-23712.59
2022-10-29T10:49:11.263Z,-23718.91
2022-10-29T10:51:42.646Z,-23724.97
2022-10-29T10:54:26.348Z,-23729.81
2022-10-29T10:57:01.867Z,-23732.50
2022-10-29T10:59:57.530Z,-23728.13
2022-10-29T11:02:29.463Z,-23737.09
2022-10-29T11:05:03.604Z,-23736.88
2022-10-29T11:07:37.317Z,-23744.13
2022-10-29T11:10:05.068Z,-23756.03
2022-10-29T11:12:37.405Z,-23758.69
2022-10-29T11:15:42.500Z,-23759.66
2022-10-29T11:18:21.261Z,-23754.09
2022-10-29T11:20:59.472Z,-23764.28
2022-10-29T11:23:41.155Z,-23774.97
2022-10-29T11:26:17.633Z,-23779.81
2022-10-29T11:29:11.781Z,-23771.56
2022-10-29T11:31:41.250Z,-23780.78
2022-10-29T11:34:39.791Z,-23781.75
2022-10-29T11:37:29.536Z,-23799.22
2022-10-29T11:40:04.034Z,-23806.25
2022-10-29T11:42:30.791Z,-23803.34
2022-10-29T11:44:59.501Z,-23803.13
2022-10-29T11:47:38.099Z,-23815.72
2022-10-29T11:50:10.584Z,-23819.13
2022-10-29T11:52:41.723Z,-23822.53
2022-10-29T11:55:26.146Z,-23829.56
2022-10-29T11:57:57.336Z,-23808.94
2022-10-29T12:00:24.722Z,-23816.69
2022-10-29T12:02:57.270Z,-23819.13
2022-10-29T12:05:45.985Z,-23815.25
2022-10-29T12:08:41.905Z,-23834.19
2022-10-29T12:11:32.083Z,-23830.78
2022-10-29T12:14:27.701Z,-23835.88
2022-10-29T12:17:26.707Z,-23835.16
2022-10-29T12:20:12.236Z,-23849.97
2022-10-29T12:22:46.849Z,-23851.66
2022-10-29T12:25:15.254Z,-23855.53
2022-10-29T12:27:59.035Z,-23869.63
2022-10-29T12:30:26.808Z,-23873.50
2022-10-29T12:32:56.213Z,-23865.25
2022-10-29T12:35:28.787Z,-23880.56
2022-10-29T12:38:23.518Z,-23871.56
2022-10-29T12:40:57.033Z,-23879.09
2022-10-29T12:43:30.341Z,-23872.28
2022-10-29T12:46:20.454Z,-23887.59
2022-10-29T12:48:47.660Z,-23895.34
2022-10-29T12:51:35.260Z,-23887.84
2022-10-29T12:54:07.909Z,-23880.31
2022-10-29T12:56:34.544Z,-23893.44
2022-10-29T12:59:33.298Z,-23889.03
2022-10-29T13:02:24.207Z,-23891.00
2022-10-29T13:05:06.091Z,-23898.28
2022-10-29T13:07:33.974Z,-23891.97
2022-10-29T13:10:22.321Z,-23900.22
2022-10-29T13:13:24.964Z,-23889.28
2022-10-29T13:16:02.576Z,-23904.59
2022-10-29T13:18:48.499Z,-23900.94
2022-10-29T13:21:53.296Z,-23906.06
2022-10-29T13:24:20.876Z,-23898.75
2022-10-29T13:27:02.120Z,-23914.31
2022-10-29T13:29:45.047Z,-23900.69
2022-10-29T13:32:37.086Z,-23898.75
2022-10-29T13:35:27.320Z,-23913.56
2022-10-29T13:38:13.938Z,-23918.19
2022-10-29T13:41:01.964Z,-23923.53
2022-10-29T13:43:29.437Z,-23927.41
2022-10-29T13:46:14.361Z,-23932.75
2022-10-29T13:48:41.916Z,-23930.31
2022-10-29T13:51:14.487Z,-23927.91
2022-10-29T13:53:53.180Z,-23913.81
2022-10-29T13:56:28.467Z,-23910.91
2022-10-29T13:58:55.986Z,-23915.03
2022-10-29T14:01:24.681Z,-23916.25
2022-10-29T14:04:37.992Z,-23917.47
2022-10-29T14:07:10.843Z,-23911.38
2022-10-29T14:09:47.224Z,-23920.63
2022-10-29T14:12:21.042Z,-23888.09
2022-10-29T14:14:58.737Z,-23907.00
2022-10-29T14:17:25.249Z,-23911.88
2022-10-29T14:19:52.507Z,-23914.53
2022-10-29T14:22:18.997Z,-23906.53
2022-10-29T14:24:45.502Z,-23897.78
2022-10-29T14:27:14.069Z,-23906.06
2022-10-29T14:29:41.411Z,-23913.31
2022-10-29T14:32:13.101Z,-23899.75
2022-10-29T14:34:42.735Z,-23900.22
2022-10-29T14:37:33.320Z,-23904.09
2022-10-29T14:40:04.123Z,-23904.09
2022-10-29T14:42:32.344Z,-23900.69
2022-10-29T14:45:06.504Z,-23892.94
2022-10-29T14:47:39.393Z,-23889.28
2022-10-29T14:50:16.362Z,-23890.03
2022-10-29T14:52:48.542Z,-23884.44
2022-10-29T14:55:26.333Z,-23890.50
2022-10-29T14:58:07.672Z,-23891.00
2022-10-29T15:00:37.099Z,-23894.88
2022-10-29T15:03:05.723Z,-23903.13
2022-10-29T15:05:37.161Z,-23896.34
2022-10-29T15:08:09.716Z,-23898.75
2022-10-29T15:10:47.040Z,-23900.69
2022-10-29T15:13:32.338Z,-23884.44
2022-10-29T15:16:05.206Z,-23883.47
2022-10-29T15:18:33.180Z,-23888.81
2022-10-29T15:21:00.213Z,-23872.78
2022-10-29T15:23:27.949Z,-23874.00
2022-10-29T15:26:02.706Z,-23871.09
2022-10-29T15:28:36.863Z,-23870.59
2022-10-29T15:31:04.133Z,-23860.63
2022-10-29T15:33:31.702Z,-23864.53
2022-10-29T15:36:02.912Z,-23859.69
2022-10-29T15:38:35.261Z,-23863.06
2022-10-29T15:41:20.203Z,-23849.72
2022-10-29T15:43:57.408Z,-23849.22
2022-10-29T15:46:26.098Z,-23844.88
2022-10-29T15:48:53.083Z,-23844.38
2022-10-29T15:51:27.327Z,-23846.09
2022-10-29T15:53:58.769Z,-23844.38
2022-10-29T15:56:25.652Z,-23833.22
2022-10-29T15:58:53.157Z,-23835.63
2022-10-29T16:01:19.777Z,-23833.69
2022-10-29T16:03:46.363Z,-23823.00
2022-10-29T16:06:15.299Z,-23819.13
2022-10-29T16:08:43.531Z,-23807.25
2022-10-29T16:11:16.182Z,-23817.19
2022-10-29T16:13:42.749Z,-23803.34
2022-10-29T16:16:14.531Z,-23799.72
2022-10-29T16:18:41.019Z,-23810.88
2022-10-29T16:21:07.630Z,-23800.94
2022-10-29T16:23:37.453Z,-23801.41
2022-10-29T16:26:04.313Z,-23802.63
2022-10-29T16:28:30.813Z,-23790.97
2022-10-29T16:30:59.296Z,-23792.19
2022-10-29T16:33:26.461Z,-23782.25
2022-10-29T16:35:52.983Z,-23783.19
2022-10-29T16:38:19.524Z,-23778.59
2022-10-29T16:40:46.136Z,-23772.03
2022-10-29T16:43:12.668Z,-23768.16
2022-10-29T16:45:39.210Z,-23773.50
2022-10-29T16:48:06.117Z,-23767.69
2022-10-29T16:50:34.413Z,-23772.03
2022-10-29T16:53:06.839Z,-23765.00
2022-10-29T16:55:36.363Z,-23757.97
2022-10-29T16:58:03.183Z,-23760.16
2022-10-29T17:00:33.164Z,-23756.03
2022-10-29T17:03:04.758Z,-23753.59
2022-10-29T17:05:35.864Z,-23749.72
2022-10-29T17:08:02.674Z,-23758.44
2022-10-29T17:10:31.231Z,-23756.03
2022-10-29T17:12:59.174Z,-23750.69
2022-10-29T17:15:26.165Z,-23750.94
2022-10-29T17:17:52.653Z,-23753.34
2022-10-29T17:20:19.707Z,-23746.81
2022-10-29T17:22:46.289Z,-23740.25
2022-10-29T17:25:12.936Z,-23744.63
2022-10-29T17:27:43.071Z,-23742.69
2022-10-29T17:30:10.904Z,-23743.16
2022-10-29T17:32:37.522Z,-23741.97
2022-10-29T17:35:04.430Z,-23737.09
2022-10-29T17:37:31.083Z,-23722.78
2022-10-29T17:40:03.018Z,-23725.44
2022-10-29T17:42:33.445Z,-23722.28
2022-10-29T17:44:59.952Z,-23720.13
2022-10-29T17:47:26.503Z,-23723.25
2022-10-29T17:49:53.035Z,-23725.22
2022-10-29T17:52:19.550Z,-23723.50
2022-10-29T17:54:46.069Z,-23719.13
2022-10-29T17:57:12.644Z,-23714.28
2022-10-29T17:59:39.129Z,-23713.31
2022-10-29T18:02:05.720Z,-23714.78
2022-10-29T18:04:32.386Z,-23705.06
2022-10-29T18:06:58.895Z,-23704.59
2022-10-29T18:09:25.446Z,-23704.59
2022-10-29T18:11:51.974Z,-23701.66
2022-10-29T18:14:18.548Z,-23693.91
2022-10-29T18:16:45.838Z,-23690.50
2022-10-29T18:19:12.414Z,-23689.53
2022-10-29T18:21:38.913Z,-23683.94
2022-10-29T18:24:05.896Z,-23684.69
2022-10-29T18:26:34.928Z,-23694.38
2022-10-29T18:29:06.373Z,-23687.59
2022-10-29T18:31:33.368Z,-23684.69
2022-10-29T18:34:02.340Z,-23685.41
2022-10-29T18:36:28.833Z,-23687.59
2022-10-29T18:38:56.763Z,-23685.66
2022-10-29T18:41:24.527Z,-23685.19
2022-10-29T18:43:51.496Z,-23676.44
2022-10-29T18:46:18.951Z,-23670.63
2022-10-29T18:48:47.131Z,-23672.56
2022-10-29T18:51:24.302Z,-23679.34
2022-10-29T18:53:51.732Z,-23667.69
2022-10-29T18:56:20.135Z,-23668.19
2022-10-29T18:58:46.674Z,-23663.34
2022-10-29T19:01:17.043Z,-23651.69
2022-10-29T19:03:44.323Z,-23655.56
2022-10-29T19:06:13.320Z,-23652.41
2022-10-29T19:08:41.729Z,-23656.31
2022-10-29T19:11:11.989Z,-23645.88
2022-10-29T19:13:38.841Z,-23644.91
2022-10-29T19:16:07.981Z,-23641.00
2022-10-29T19:18:35.216Z,-23633.75
2022-10-29T19:21:05.952Z,-23632.28
2022-10-29T19:23:33.046Z,-23630.34
2022-10-29T19:26:11.877Z,-23628.16
2022-10-29T19:28:39.583Z,-23624.28
2022-10-29T19:31:08.646Z,-23623.56
2022-10-29T19:33:35.496Z,-23620.66
2022-10-29T19:36:02.298Z,-23618.69
2022-10-29T19:38:29.173Z,-23617.72
2022-10-29T19:40:58.558Z,-23613.38
2022-10-29T19:43:26.301Z,-23618.94
2022-10-29T19:45:53.159Z,-23629.84
2022-10-29T19:48:19.638Z,-23622.09
2022-10-29T19:50:46.796Z,-23617.72
2022-10-29T19:53:13.268Z,-23617.47
2022-10-29T19:55:40.495Z,-23619.66
2022-10-29T19:58:07.987Z,-23618.22
2022-10-29T20:00:34.457Z,-23613.38
2022-10-29T20:03:00.998Z,-23612.38
2022-10-29T20:05:27.779Z,-23605.13
2022-10-29T20:07:56.059Z,-23601.72
2022-10-29T20:10:24.047Z,-23600.75
2022-10-29T20:12:50.567Z,-23604.63
2022-10-29T20:15:17.072Z,-23604.13
2022-10-29T20:17:43.561Z,-23600.25
2022-10-29T20:20:14.264Z,-23588.63
2022-10-29T20:22:45.078Z,-23583.53
2022-10-29T20:25:12.543Z,-23591.53
2022-10-29T20:27:39.258Z,-23575.28
2022-10-29T20:30:06.601Z,-23569.72
2022-10-29T20:32:33.125Z,-23567.53
2022-10-29T20:34:59.604Z,-23575.28
2022-10-29T20:37:26.115Z,-23566.78
2022-10-29T20:39:52.673Z,-23562.91
2022-10-29T20:42:19.242Z,-23560.97
2022-10-29T20:44:45.980Z,-23556.13
2022-10-29T20:47:12.471Z,-23561.94
2022-10-29T20:49:39.025Z,-23557.09
2022-10-29T20:52:07.169Z,-23554.44
2022-10-29T20:54:33.765Z,-23555.63
2022-10-29T20:57:00.292Z,-23553.22
2022-10-29T20:59:26.789Z,-23550.31
2022-10-29T21:01:53.408Z,-23569.94
2022-10-29T21:04:20.046Z,-23566.56
2022-10-29T21:06:46.515Z,-23559.53
2022-10-29T21:09:13.037Z,-23560.25
2022-10-29T21:11:39.501Z,-23567.75
2022-10-29T21:14:06.146Z,-23569.72
2022-10-29T21:16:32.996Z,-23569.22
2022-10-29T21:19:00.780Z,-23561.72
2022-10-29T21:21:28.914Z,-23555.16
2022-10-29T21:23:56.862Z,-23540.59
2022-10-29T21:26:25.400Z,-23535.50
2022-10-29T21:28:53.201Z,-23523.63
2022-10-29T21:31:20.765Z,-23523.63
2022-10-29T21:33:51.613Z,-23514.41
2022-10-29T21:36:18.691Z,-23515.41
2022-10-29T21:38:45.244Z,-23520.72
2022-10-29T21:41:11.912Z,-23535.25
2022-10-29T21:43:39.124Z,-23531.88
2022-10-29T21:46:06.043Z,-23523.16
2022-10-29T21:48:33.117Z,-23516.38
2022-10-29T21:51:05.661Z,-23502.06
2022-10-29T21:53:32.511Z,-23502.31
2022-10-29T21:56:00.853Z,-23512.22
2022-10-29T21:58:28.149Z,-23501.81
2022-10-29T22:01:13.713Z,-23488.47
2022-10-29T22:03:42.012Z,-23498.66
2022-10-29T22:06:17.020Z,-23499.16
2022-10-29T22:08:44.692Z,-23502.31
2022-10-29T22:11:12.607Z,-23509.56
2022-10-29T22:13:39.340Z,-23518.78
2022-10-29T22:16:07.062Z,-23517.09
2022-10-29T22:18:34.270Z,-23497.69
2022-10-29T22:21:15.287Z,-23508.59
2022-10-29T22:23:46.226Z,-23517.09
2022-10-29T22:26:14.481Z,-23505.22
2022-10-29T22:28:41.179Z,-23503.75
2022-10-29T22:31:07.940Z,-23489.44
2022-10-29T22:33:34.498Z,-23470.78
2022-10-29T22:36:14.078Z,-23468.34
2022-10-29T22:38:41.206Z,-23475.16
2022-10-29T22:41:10.187Z,-23480.47
2022-10-29T22:43:37.257Z,-23473.22
2022-10-29T22:46:05.740Z,-23490.19
2022-10-29T22:48:32.292Z,-23482.44
2022-10-29T22:51:04.460Z,-23482.91
2022-10-29T22:53:31.888Z,-23494.06
2022-10-29T22:55:59.078Z,-23498.91
2022-10-29T22:58:25.691Z,-23484.38
2022-10-29T23:01:13.212Z,-23474.44
2022-10-29T23:03:41.007Z,-23469.34
2022-10-29T23:06:09.412Z,-23480.00
2022-10-29T23:08:36.571Z,-23479.50
2022-10-29T23:11:19.403Z,-23473.22
2022-10-29T23:13:50.323Z,-23452.38
2022-10-29T23:16:16.936Z,-23448.72
2022-10-29T23:18:43.976Z,-23437.56
2022-10-29T23:21:10.546Z,-23446.06
2022-10-29T23:23:37.167Z,-23452.13
2022-10-29T23:26:04.299Z,-23451.88
2022-10-29T23:28:36.797Z,-23453.09
2022-10-29T23:31:05.303Z,-23454.78
2022-10-29T23:33:32.823Z,-23450.91
2022-10-29T23:36:06.819Z,-23464.47
2022-10-29T23:38:34.231Z,-23435.88
2022-10-29T23:41:01.729Z,-23444.38
2022-10-29T23:43:28.336Z,-23446.53
2022-10-29T23:45:54.904Z,-23431.03
2022-10-29T23:48:21.975Z,-23423.03
2022-10-29T23:50:48.520Z,-23428.13
2022-10-29T23:53:15.283Z,-23419.66
2022-10-29T23:55:42.586Z,-23424.25
2022-10-29T23:58:09.146Z,-23419.66
